sensor_id;sensor_type;location;lat;lon;timestamp;temperature;humidity
55634;DHT22;41504;53.162;6.788;2023-02-01T00:02:17;6.40;82.70
55634;DHT22;41504;53.162;6.788;2023-02-01T00:04:43;6.50;82.80
55634;DHT22;41504;53.162;6.788;2023-02-01T00:07:09;6.50;83.30
55634;DHT22;41504;53.162;6.788;2023-02-01T00:09:34;6.50;82.90
55634;DHT22;41504;53.162;6.788;2023-02-01T00:12:00;6.50;82.90
55634;DHT22;41504;53.162;6.788;2023-02-01T00:14:28;6.50;82.90
55634;DHT22;41504;53.162;6.788;2023-02-01T00:16:54;6.50;83.10
55634;DHT22;41504;53.162;6.788;2023-02-01T00:19:20;6.50;82.80
55634;DHT22;41504;53.162;6.788;2023-02-01T00:21:48;6.50;82.80
55634;DHT22;41504;53.162;6.788;2023-02-01T00:24:14;6.50;82.70
55634;DHT22;41504;53.162;6.788;2023-02-01T00:26:42;6.50;82.90
55634;DHT22;41504;53.162;6.788;2023-02-01T00:29:17;6.50;82.70
55634;DHT22;41504;53.162;6.788;2023-02-01T00:31:44;6.50;82.60
55634;DHT22;41504;53.162;6.788;2023-02-01T00:34:15;6.50;82.60
55634;DHT22;41504;53.162;6.788;2023-02-01T00:36:42;6.50;82.30
55634;DHT22;41504;53.162;6.788;2023-02-01T00:39:08;6.60;82.10
55634;DHT22;41504;53.162;6.788;2023-02-01T00:41:34;6.50;82.10
55634;DHT22;41504;53.162;6.788;2023-02-01T00:44:00;6.60;82.10
55634;DHT22;41504;53.162;6.788;2023-02-01T00:46:30;6.60;82.00
55634;DHT22;41504;53.162;6.788;2023-02-01T00:48:58;6.50;82.10
55634;DHT22;41504;53.162;6.788;2023-02-01T00:51:26;6.60;81.90
55634;DHT22;41504;53.162;6.788;2023-02-01T00:53:53;6.60;81.80
55634;DHT22;41504;53.162;6.788;2023-02-01T00:56:19;6.60;81.90
55634;DHT22;41504;53.162;6.788;2023-02-01T00:58:45;6.60;82.00
55634;DHT22;41504;53.162;6.788;2023-02-01T01:03:42;6.60;82.10
55634;DHT22;41504;53.162;6.788;2023-02-01T01:06:11;6.60;82.20
55634;DHT22;41504;53.162;6.788;2023-02-01T01:08:38;6.50;82.20
55634;DHT22;41504;53.162;6.788;2023-02-01T01:11:09;6.60;82.10
55634;DHT22;41504;53.162;6.788;2023-02-01T01:13:35;6.60;82.00
55634;DHT22;41504;53.162;6.788;2023-02-01T01:16:03;6.60;82.10
55634;DHT22;41504;53.162;6.788;2023-02-01T01:18:30;6.60;82.10
55634;DHT22;41504;53.162;6.788;2023-02-01T01:20:59;6.50;82.10
55634;DHT22;41504;53.162;6.788;2023-02-01T01:23:25;6.90;82.30
55634;DHT22;41504;53.162;6.788;2023-02-01T01:25:51;6.60;82.40
55634;DHT22;41504;53.162;6.788;2023-02-01T01:28:16;6.60;82.20
55634;DHT22;41504;53.162;6.788;2023-02-01T01:30:42;6.60;82.20
55634;DHT22;41504;53.162;6.788;2023-02-01T01:33:08;6.60;82.10
55634;DHT22;41504;53.162;6.788;2023-02-01T01:35:37;6.60;82.00
55634;DHT22;41504;53.162;6.788;2023-02-01T01:38:03;6.60;82.10
55634;DHT22;41504;53.162;6.788;2023-02-01T01:40:32;6.60;82.30
55634;DHT22;41504;53.162;6.788;2023-02-01T01:42:58;6.60;82.30
55634;DHT22;41504;53.162;6.788;2023-02-01T01:45:33;6.60;82.80
55634;DHT22;41504;53.162;6.788;2023-02-01T01:48:03;6.60;82.40
55634;DHT22;41504;53.162;6.788;2023-02-01T01:50:38;6.60;82.40
55634;DHT22;41504;53.162;6.788;2023-02-01T01:53:06;6.60;82.40
55634;DHT22;41504;53.162;6.788;2023-02-01T01:55:36;6.60;82.70
55634;DHT22;41504;53.162;6.788;2023-02-01T01:58:06;6.80;83.00
55634;DHT22;41504;53.162;6.788;2023-02-01T02:00:33;6.60;83.20
55634;DHT22;41504;53.162;6.788;2023-02-01T02:03:07;6.60;83.70
55634;DHT22;41504;53.162;6.788;2023-02-01T02:05:34;6.60;84.40
55634;DHT22;41504;53.162;6.788;2023-02-01T02:08:00;6.60;85.00
55634;DHT22;41504;53.162;6.788;2023-02-01T02:10:27;6.50;85.50
55634;DHT22;41504;53.162;6.788;2023-02-01T02:13:14;6.40;85.90
55634;DHT22;41504;53.162;6.788;2023-02-01T02:15:46;6.40;86.50
55634;DHT22;41504;53.162;6.788;2023-02-01T02:18:27;6.40;86.70
55634;DHT22;41504;53.162;6.788;2023-02-01T02:21:52;6.30;87.00
55634;DHT22;41504;53.162;6.788;2023-02-01T02:33:40;6.20;88.30
55634;DHT22;41504;53.162;6.788;2023-02-01T02:45:07;5.90;89.50
55634;DHT22;41504;53.162;6.788;2023-02-01T02:48:02;6.10;88.90
55634;DHT22;41504;53.162;6.788;2023-02-01T02:50:50;6.00;89.10
55634;DHT22;41504;53.162;6.788;2023-02-01T02:54:07;5.80;89.10
55634;DHT22;41504;53.162;6.788;2023-02-01T02:56:53;6.10;89.30
55634;DHT22;41504;53.162;6.788;2023-02-01T02:59:40;6.20;89.40
55634;DHT22;41504;53.162;6.788;2023-02-01T03:02:27;6.10;89.70
55634;DHT22;41504;53.162;6.788;2023-02-01T03:05:12;6.10;89.70
55634;DHT22;41504;53.162;6.788;2023-02-01T03:16:33;6.20;89.10
55634;DHT22;41504;53.162;6.788;2023-02-01T03:19:09;6.20;88.60
55634;DHT22;41504;53.162;6.788;2023-02-01T03:24:19;6.30;88.30
55634;DHT22;41504;53.162;6.788;2023-02-01T03:26:51;6.30;88.00
55634;DHT22;41504;53.162;6.788;2023-02-01T03:29:25;6.30;87.60
55634;DHT22;41504;53.162;6.788;2023-02-01T03:31:53;6.30;87.40
55634;DHT22;41504;53.162;6.788;2023-02-01T03:34:19;6.40;86.80
55634;DHT22;41504;53.162;6.788;2023-02-01T03:36:57;6.40;87.00
55634;DHT22;41504;53.162;6.788;2023-02-01T03:39:48;6.50;86.50
55634;DHT22;41504;53.162;6.788;2023-02-01T03:42:24;6.50;86.50
55634;DHT22;41504;53.162;6.788;2023-02-01T03:45:11;6.50;86.10
55634;DHT22;41504;53.162;6.788;2023-02-01T03:47:44;6.50;86.10
55634;DHT22;41504;53.162;6.788;2023-02-01T03:50:23;6.50;86.30
55634;DHT22;41504;53.162;6.788;2023-02-01T03:53:01;6.50;86.40
55634;DHT22;41504;53.162;6.788;2023-02-01T03:55:28;6.50;86.20
55634;DHT22;41504;53.162;6.788;2023-02-01T03:58:01;6.50;86.10
55634;DHT22;41504;53.162;6.788;2023-02-01T04:00:28;6.60;86.30
55634;DHT22;41504;53.162;6.788;2023-02-01T04:02:54;6.50;86.10
55634;DHT22;41504;53.162;6.788;2023-02-01T04:05:21;6.50;86.40
55634;DHT22;41504;53.162;6.788;2023-02-01T04:07:50;6.50;86.60
55634;DHT22;41504;53.162;6.788;2023-02-01T04:10:16;6.50;87.10
55634;DHT22;41504;53.162;6.788;2023-02-01T04:12:42;6.50;88.20
55634;DHT22;41504;53.162;6.788;2023-02-01T04:15:08;6.40;88.30
55634;DHT22;41504;53.162;6.788;2023-02-01T04:17:33;6.40;88.90
55634;DHT22;41504;53.162;6.788;2023-02-01T04:19:59;6.30;89.10
55634;DHT22;41504;53.162;6.788;2023-02-01T04:22:25;6.30;89.20
55634;DHT22;41504;53.162;6.788;2023-02-01T04:24:51;6.30;89.30
55634;DHT22;41504;53.162;6.788;2023-02-01T04:27:16;6.30;89.40
55634;DHT22;41504;53.162;6.788;2023-02-01T04:29:42;6.30;89.50
55634;DHT22;41504;53.162;6.788;2023-02-01T04:32:10;6.30;89.30
55634;DHT22;41504;53.162;6.788;2023-02-01T04:34:36;6.30;89.10
55634;DHT22;41504;53.162;6.788;2023-02-01T04:37:05;6.30;89.10
55634;DHT22;41504;53.162;6.788;2023-02-01T04:39:30;6.30;88.90
55634;DHT22;41504;53.162;6.788;2023-02-01T04:41:59;6.40;88.70
55634;DHT22;41504;53.162;6.788;2023-02-01T04:44:24;6.40;88.50
55634;DHT22;41504;53.162;6.788;2023-02-01T04:46:50;6.40;88.40
55634;DHT22;41504;53.162;6.788;2023-02-01T04:49:16;6.40;88.40
55634;DHT22;41504;53.162;6.788;2023-02-01T04:51:42;6.40;87.90
55634;DHT22;41504;53.162;6.788;2023-02-01T04:54:09;6.40;87.60
55634;DHT22;41504;53.162;6.788;2023-02-01T04:56:37;6.50;87.10
55634;DHT22;41504;53.162;6.788;2023-02-01T04:59:03;6.50;87.40
55634;DHT22;41504;53.162;6.788;2023-02-01T05:01:29;6.50;87.30
55634;DHT22;41504;53.162;6.788;2023-02-01T05:03:55;6.50;87.00
55634;DHT22;41504;53.162;6.788;2023-02-01T05:06:21;6.60;86.70
55634;DHT22;41504;53.162;6.788;2023-02-01T05:08:47;6.60;87.10
55634;DHT22;41504;53.162;6.788;2023-02-01T05:11:15;6.50;87.00
55634;DHT22;41504;53.162;6.788;2023-02-01T05:14:00;6.60;86.60
55634;DHT22;41504;53.162;6.788;2023-02-01T05:16:28;6.60;86.60
55634;DHT22;41504;53.162;6.788;2023-02-01T05:18:54;6.60;86.30
55634;DHT22;41504;53.162;6.788;2023-02-01T05:21:20;6.50;86.60
55634;DHT22;41504;53.162;6.788;2023-02-01T05:23:46;6.60;86.60
55634;DHT22;41504;53.162;6.788;2023-02-01T05:26:31;6.60;86.70
55634;DHT22;41504;53.162;6.788;2023-02-01T05:28:56;6.50;86.00
55634;DHT22;41504;53.162;6.788;2023-02-01T05:31:23;6.50;86.00
55634;DHT22;41504;53.162;6.788;2023-02-01T05:33:49;6.50;86.40
55634;DHT22;41504;53.162;6.788;2023-02-01T05:36:15;6.50;86.60
55634;DHT22;41504;53.162;6.788;2023-02-01T05:38:43;6.50;86.60
55634;DHT22;41504;53.162;6.788;2023-02-01T05:41:09;6.50;86.60
55634;DHT22;41504;53.162;6.788;2023-02-01T05:43:35;6.50;86.50
55634;DHT22;41504;53.162;6.788;2023-02-01T05:46:00;6.50;86.60
55634;DHT22;41504;53.162;6.788;2023-02-01T05:48:29;6.50;86.80
55634;DHT22;41504;53.162;6.788;2023-02-01T05:50:55;6.50;87.10
55634;DHT22;41504;53.162;6.788;2023-02-01T05:53:21;6.40;86.50
55634;DHT22;41504;53.162;6.788;2023-02-01T05:55:47;6.50;86.80
55634;DHT22;41504;53.162;6.788;2023-02-01T05:58:13;6.60;86.20
55634;DHT22;41504;53.162;6.788;2023-02-01T06:00:39;6.60;86.10
55634;DHT22;41504;53.162;6.788;2023-02-01T06:03:05;6.60;85.10
55634;DHT22;41504;53.162;6.788;2023-02-01T06:07:57;6.70;84.10
55634;DHT22;41504;53.162;6.788;2023-02-01T06:10:24;6.80;84.50
55634;DHT22;41504;53.162;6.788;2023-02-01T06:12:49;6.70;84.60
55634;DHT22;41504;53.162;6.788;2023-02-01T06:15:15;6.70;85.00
55634;DHT22;41504;53.162;6.788;2023-02-01T06:17:43;6.70;85.00
55634;DHT22;41504;53.162;6.788;2023-02-01T06:20:10;6.70;85.20
55634;DHT22;41504;53.162;6.788;2023-02-01T06:22:36;6.70;85.40
55634;DHT22;41504;53.162;6.788;2023-02-01T06:25:03;6.70;85.40
55634;DHT22;41504;53.162;6.788;2023-02-01T06:27:29;6.60;85.60
55634;DHT22;41504;53.162;6.788;2023-02-01T06:29:55;6.70;85.80
55634;DHT22;41504;53.162;6.788;2023-02-01T06:32:21;6.60;85.90
55634;DHT22;41504;53.162;6.788;2023-02-01T06:34:48;6.60;86.20
55634;DHT22;41504;53.162;6.788;2023-02-01T06:37:14;6.60;86.20
55634;DHT22;41504;53.162;6.788;2023-02-01T06:39:39;6.60;86.40
55634;DHT22;41504;53.162;6.788;2023-02-01T06:42:08;6.60;86.40
55634;DHT22;41504;53.162;6.788;2023-02-01T06:44:34;6.60;86.40
55634;DHT22;41504;53.162;6.788;2023-02-01T06:47:00;6.60;86.50
55634;DHT22;41504;53.162;6.788;2023-02-01T06:49:25;6.60;86.60
55634;DHT22;41504;53.162;6.788;2023-02-01T06:51:51;6.50;87.00
55634;DHT22;41504;53.162;6.788;2023-02-01T06:54:17;6.60;86.70
55634;DHT22;41504;53.162;6.788;2023-02-01T06:56:42;6.60;86.50
55634;DHT22;41504;53.162;6.788;2023-02-01T06:59:10;6.60;86.20
55634;DHT22;41504;53.162;6.788;2023-02-01T07:01:36;6.60;86.20
55634;DHT22;41504;53.162;6.788;2023-02-01T07:04:02;6.60;86.30
55634;DHT22;41504;53.162;6.788;2023-02-01T07:06:30;6.60;86.50
55634;DHT22;41504;53.162;6.788;2023-02-01T07:08:59;6.60;86.60
55634;DHT22;41504;53.162;6.788;2023-02-01T07:11:26;6.60;86.50
55634;DHT22;41504;53.162;6.788;2023-02-01T07:13:56;6.60;86.60
55634;DHT22;41504;53.162;6.788;2023-02-01T07:16:24;6.60;86.50
55634;DHT22;41504;53.162;6.788;2023-02-01T07:18:51;6.60;86.60
55634;DHT22;41504;53.162;6.788;2023-02-01T07:21:17;6.60;86.60
55634;DHT22;41504;53.162;6.788;2023-02-01T07:23:43;6.60;86.70
55634;DHT22;41504;53.162;6.788;2023-02-01T07:26:12;6.60;86.50
55634;DHT22;41504;53.162;6.788;2023-02-01T07:28:39;6.60;86.50
55634;DHT22;41504;53.162;6.788;2023-02-01T07:31:13;6.70;86.50
55634;DHT22;41504;53.162;6.788;2023-02-01T07:33:41;6.70;86.20
55634;DHT22;41504;53.162;6.788;2023-02-01T07:36:11;6.70;86.10
55634;DHT22;41504;53.162;6.788;2023-02-01T07:38:37;6.70;86.10
55634;DHT22;41504;53.162;6.788;2023-02-01T07:41:04;6.70;86.30
55634;DHT22;41504;53.162;6.788;2023-02-01T07:43:31;6.70;86.40
55634;DHT22;41504;53.162;6.788;2023-02-01T07:45:58;6.70;86.30
55634;DHT22;41504;53.162;6.788;2023-02-01T07:48:25;6.70;86.20
55634;DHT22;41504;53.162;6.788;2023-02-01T07:51:10;6.70;86.30
55634;DHT22;41504;53.162;6.788;2023-02-01T07:53:38;6.70;86.20
55634;DHT22;41504;53.162;6.788;2023-02-01T07:56:08;6.80;86.30
55634;DHT22;41504;53.162;6.788;2023-02-01T07:58:35;6.70;87.00
55634;DHT22;41504;53.162;6.788;2023-02-01T08:01:01;6.70;86.60
55634;DHT22;41504;53.162;6.788;2023-02-01T08:03:49;6.80;86.40
55634;DHT22;41504;53.162;6.788;2023-02-01T08:06:15;6.70;86.40
55634;DHT22;41504;53.162;6.788;2023-02-01T08:08:41;6.70;86.50
55634;DHT22;41504;53.162;6.788;2023-02-01T08:11:10;6.70;86.50
55634;DHT22;41504;53.162;6.788;2023-02-01T08:13:36;6.70;86.80
55634;DHT22;41504;53.162;6.788;2023-02-01T08:16:04;6.70;86.80
55634;DHT22;41504;53.162;6.788;2023-02-01T08:18:31;6.70;86.80
55634;DHT22;41504;53.162;6.788;2023-02-01T08:21:01;6.70;86.80
55634;DHT22;41504;53.162;6.788;2023-02-01T08:23:27;6.80;86.90
55634;DHT22;41504;53.162;6.788;2023-02-01T08:25:53;6.70;87.00
55634;DHT22;41504;53.162;6.788;2023-02-01T08:28:19;6.70;86.70
55634;DHT22;41504;53.162;6.788;2023-02-01T08:30:44;6.70;86.70
55634;DHT22;41504;53.162;6.788;2023-02-01T08:33:10;7.00;86.90
55634;DHT22;41504;53.162;6.788;2023-02-01T08:35:37;6.80;86.50
55634;DHT22;41504;53.162;6.788;2023-02-01T08:38:03;6.80;86.80
55634;DHT22;41504;53.162;6.788;2023-02-01T08:40:32;6.90;86.70
55634;DHT22;41504;53.162;6.788;2023-02-01T08:42:58;6.70;86.50
55634;DHT22;41504;53.162;6.788;2023-02-01T08:45:27;6.80;86.80
55634;DHT22;41504;53.162;6.788;2023-02-01T08:47:59;6.80;86.80
55634;DHT22;41504;53.162;6.788;2023-02-01T08:50:25;6.80;86.70
55634;DHT22;41504;53.162;6.788;2023-02-01T08:52:54;6.80;86.90
55634;DHT22;41504;53.162;6.788;2023-02-01T08:55:20;6.80;87.00
55634;DHT22;41504;53.162;6.788;2023-02-01T08:57:46;6.80;87.40
55634;DHT22;41504;53.162;6.788;2023-02-01T09:00:17;6.80;87.00
55634;DHT22;41504;53.162;6.788;2023-02-01T09:02:43;6.80;87.00
55634;DHT22;41504;53.162;6.788;2023-02-01T09:05:09;6.80;87.10
55634;DHT22;41504;53.162;6.788;2023-02-01T09:07:36;6.80;87.20
55634;DHT22;41504;53.162;6.788;2023-02-01T09:10:04;6.80;86.80
55634;DHT22;41504;53.162;6.788;2023-02-01T09:12:32;6.80;87.10
55634;DHT22;41504;53.162;6.788;2023-02-01T09:14:58;6.80;87.00
55634;DHT22;41504;53.162;6.788;2023-02-01T09:17:28;6.80;86.90
55634;DHT22;41504;53.162;6.788;2023-02-01T09:19:54;6.80;87.00
55634;DHT22;41504;53.162;6.788;2023-02-01T09:22:20;6.80;87.00
55634;DHT22;41504;53.162;6.788;2023-02-01T09:24:46;6.80;87.10
55634;DHT22;41504;53.162;6.788;2023-02-01T09:27:18;6.80;86.70
55634;DHT22;41504;53.162;6.788;2023-02-01T09:29:44;6.80;86.80
55634;DHT22;41504;53.162;6.788;2023-02-01T09:32:10;6.80;86.90
55634;DHT22;41504;53.162;6.788;2023-02-01T09:34:35;6.80;86.70
55634;DHT22;41504;53.162;6.788;2023-02-01T09:37:02;6.90;86.50
55634;DHT22;41504;53.162;6.788;2023-02-01T09:39:28;6.90;86.20
55634;DHT22;41504;53.162;6.788;2023-02-01T09:45:01;6.80;86.30
55634;DHT22;41504;53.162;6.788;2023-02-01T09:47:29;6.80;86.20
55634;DHT22;41504;53.162;6.788;2023-02-01T09:50:16;7.00;86.30
55634;DHT22;41504;53.162;6.788;2023-02-01T09:58:01;6.90;86.30
55634;DHT22;41504;53.162;6.788;2023-02-01T10:00:33;6.90;86.40
55634;DHT22;41504;53.162;6.788;2023-02-01T10:03:00;6.80;87.00
55634;DHT22;41504;53.162;6.788;2023-02-01T10:10:50;6.70;87.90
55634;DHT22;41504;53.162;6.788;2023-02-01T10:16:20;6.70;88.40
55634;DHT22;41504;53.162;6.788;2023-02-01T10:21:51;6.60;89.70
55634;DHT22;41504;53.162;6.788;2023-02-01T10:29:42;6.50;90.50
55634;DHT22;41504;53.162;6.788;2023-02-01T10:32:16;6.50;90.60
55634;DHT22;41504;53.162;6.788;2023-02-01T10:34:46;6.40;90.50
55634;DHT22;41504;53.162;6.788;2023-02-01T10:37:25;6.40;90.60
55634;DHT22;41504;53.162;6.788;2023-02-01T10:39:56;6.50;90.50
55634;DHT22;41504;53.162;6.788;2023-02-01T10:42:29;6.60;90.50
55634;DHT22;41504;53.162;6.788;2023-02-01T10:45:02;6.60;90.60
55634;DHT22;41504;53.162;6.788;2023-02-01T10:47:28;6.60;90.50
55634;DHT22;41504;53.162;6.788;2023-02-01T10:50:15;6.60;90.40
55634;DHT22;41504;53.162;6.788;2023-02-01T10:52:58;6.60;89.80
55634;DHT22;41504;53.162;6.788;2023-02-01T10:57:57;6.70;89.50
55634;DHT22;41504;53.162;6.788;2023-02-01T11:00:24;6.80;89.40
55634;DHT22;41504;53.162;6.788;2023-02-01T11:02:53;6.80;88.90
55634;DHT22;41504;53.162;6.788;2023-02-01T11:05:20;6.90;88.50
55634;DHT22;41504;53.162;6.788;2023-02-01T11:07:53;6.90;88.50
55634;DHT22;41504;53.162;6.788;2023-02-01T11:10:38;7.00;87.90
55634;DHT22;41504;53.162;6.788;2023-02-01T11:13:08;7.00;87.00
55634;DHT22;41504;53.162;6.788;2023-02-01T11:15:37;7.10;87.30
55634;DHT22;41504;53.162;6.788;2023-02-01T11:18:35;7.10;87.60
55634;DHT22;41504;53.162;6.788;2023-02-01T11:21:00;7.00;88.60
55634;DHT22;41504;53.162;6.788;2023-02-01T11:23:27;7.00;90.10
55634;DHT22;41504;53.162;6.788;2023-02-01T11:25:57;6.90;90.50
55634;DHT22;41504;53.162;6.788;2023-02-01T11:28:33;6.70;90.70
55634;DHT22;41504;53.162;6.788;2023-02-01T11:31:03;6.60;90.90
55634;DHT22;41504;53.162;6.788;2023-02-01T11:33:32;6.60;91.10
55634;DHT22;41504;53.162;6.788;2023-02-01T11:36:16;6.60;91.20
55634;DHT22;41504;53.162;6.788;2023-02-01T11:38:53;6.60;91.10
55634;DHT22;41504;53.162;6.788;2023-02-01T11:41:26;6.60;91.20
55634;DHT22;41504;53.162;6.788;2023-02-01T11:43:53;6.50;91.40
55634;DHT22;41504;53.162;6.788;2023-02-01T11:46:21;6.40;91.70
55634;DHT22;41504;53.162;6.788;2023-02-01T11:48:52;5.90;89.40
55634;DHT22;41504;53.162;6.788;2023-02-01T11:51:34;5.20;89.30
55634;DHT22;41504;53.162;6.788;2023-02-01T11:56:48;4.20;91.30
55634;DHT22;41504;53.162;6.788;2023-02-01T12:00:22;4.00;91.80
55634;DHT22;41504;53.162;6.788;2023-02-01T12:03:07;3.70;92.10
55634;DHT22;41504;53.162;6.788;2023-02-01T12:08:16;3.70;92.70
55634;DHT22;41504;53.162;6.788;2023-02-01T12:16:48;3.70;92.90
55634;DHT22;41504;53.162;6.788;2023-02-01T12:22:35;3.80;93.00
55634;DHT22;41504;53.162;6.788;2023-02-01T12:30:44;4.10;93.10
55634;DHT22;41504;53.162;6.788;2023-02-01T12:39:40;4.60;93.20
55634;DHT22;41504;53.162;6.788;2023-02-01T12:41:56;4.80;93.30
55634;DHT22;41504;53.162;6.788;2023-02-01T12:47:34;5.10;93.00
55634;DHT22;41504;53.162;6.788;2023-02-01T12:50:06;5.30;92.90
55634;DHT22;41504;53.162;6.788;2023-02-01T12:55:47;6.00;93.30
55634;DHT22;41504;53.162;6.788;2023-02-01T13:03:44;7.10;90.70
55634;DHT22;41504;53.162;6.788;2023-02-01T13:06:31;7.20;90.40
55634;DHT22;41504;53.162;6.788;2023-02-01T13:11:53;7.20;89.00
55634;DHT22;41504;53.162;6.788;2023-02-01T13:17:16;7.40;87.80
55634;DHT22;41504;53.162;6.788;2023-02-01T13:19:49;7.40;88.20
55634;DHT22;41504;53.162;6.788;2023-02-01T13:25:13;7.40;89.20
55634;DHT22;41504;53.162;6.788;2023-02-01T13:27:39;7.50;88.90
55634;DHT22;41504;53.162;6.788;2023-02-01T13:30:14;7.50;88.70
55634;DHT22;41504;53.162;6.788;2023-02-01T13:43:16;7.80;85.80
55634;DHT22;41504;53.162;6.788;2023-02-01T13:45:56;7.80;85.70
55634;DHT22;41504;53.162;6.788;2023-02-01T13:51:01;7.90;86.50
55634;DHT22;41504;53.162;6.788;2023-02-01T13:53:35;7.80;86.30
55634;DHT22;41504;53.162;6.788;2023-02-01T13:56:16;7.90;85.20
55634;DHT22;41504;53.162;6.788;2023-02-01T13:58:44;7.90;85.00
55634;DHT22;41504;53.162;6.788;2023-02-01T14:03:54;7.80;85.40
55634;DHT22;41504;53.162;6.788;2023-02-01T14:11:43;7.90;84.90
55634;DHT22;41504;53.162;6.788;2023-02-01T14:17:29;7.90;84.70
55634;DHT22;41504;53.162;6.788;2023-02-01T14:19:34;7.80;85.00
55634;DHT22;41504;53.162;6.788;2023-02-01T14:24:51;7.90;85.00
55634;DHT22;41504;53.162;6.788;2023-02-01T14:27:28;7.80;84.80
55634;DHT22;41504;53.162;6.788;2023-02-01T14:30:01;7.90;84.20
55634;DHT22;41504;53.162;6.788;2023-02-01T14:32:33;7.80;84.70
55634;DHT22;41504;53.162;6.788;2023-02-01T14:35:02;7.80;84.80
55634;DHT22;41504;53.162;6.788;2023-02-01T14:37:36;7.80;84.70
55634;DHT22;41504;53.162;6.788;2023-02-01T14:40:18;7.80;84.70
55634;DHT22;41504;53.162;6.788;2023-02-01T14:42:49;7.80;84.40
55634;DHT22;41504;53.162;6.788;2023-02-01T14:59:02;7.80;84.60
55634;DHT22;41504;53.162;6.788;2023-02-01T15:01:34;7.80;85.00
55634;DHT22;41504;53.162;6.788;2023-02-01T15:04:10;7.80;85.40
55634;DHT22;41504;53.162;6.788;2023-02-01T15:06:57;7.80;85.60
55634;DHT22;41504;53.162;6.788;2023-02-01T15:09:31;7.80;85.40
55634;DHT22;41504;53.162;6.788;2023-02-01T15:15:14;7.80;85.00
55634;DHT22;41504;53.162;6.788;2023-02-01T15:17:40;7.70;84.70
55634;DHT22;41504;53.162;6.788;2023-02-01T15:20:24;7.60;84.90
55634;DHT22;41504;53.162;6.788;2023-02-01T15:23:05;7.70;85.20
55634;DHT22;41504;53.162;6.788;2023-02-01T15:25:36;7.60;84.70
55634;DHT22;41504;53.162;6.788;2023-02-01T15:28:04;7.60;84.40
55634;DHT22;41504;53.162;6.788;2023-02-01T15:30:33;7.60;84.70
55634;DHT22;41504;53.162;6.788;2023-02-01T15:33:18;7.60;84.70
55634;DHT22;41504;53.162;6.788;2023-02-01T15:35:54;7.60;84.80
55634;DHT22;41504;53.162;6.788;2023-02-01T15:43:47;7.60;84.80
55634;DHT22;41504;53.162;6.788;2023-02-01T15:46:22;7.60;84.90
55634;DHT22;41504;53.162;6.788;2023-02-01T15:48:50;7.60;84.60
55634;DHT22;41504;53.162;6.788;2023-02-01T15:51:19;7.70;84.70
55634;DHT22;41504;53.162;6.788;2023-02-01T15:53:57;7.70;84.80
55634;DHT22;41504;53.162;6.788;2023-02-01T15:56:29;7.60;84.70
55634;DHT22;41504;53.162;6.788;2023-02-01T15:59:01;7.60;84.60
55634;DHT22;41504;53.162;6.788;2023-02-01T16:01:27;7.60;85.20
55634;DHT22;41504;53.162;6.788;2023-02-01T16:04:27;7.60;84.40
55634;DHT22;41504;53.162;6.788;2023-02-01T16:06:58;7.50;84.80
55634;DHT22;41504;53.162;6.788;2023-02-01T16:09:40;7.50;84.70
55634;DHT22;41504;53.162;6.788;2023-02-01T16:14:50;7.40;84.80
55634;DHT22;41504;53.162;6.788;2023-02-01T16:17:16;7.40;84.90
55634;DHT22;41504;53.162;6.788;2023-02-01T16:19:41;7.40;85.00
55634;DHT22;41504;53.162;6.788;2023-02-01T16:22:07;7.40;85.10
55634;DHT22;41504;53.162;6.788;2023-02-01T16:24:33;7.30;85.20
55634;DHT22;41504;53.162;6.788;2023-02-01T16:26:59;7.30;85.00
55634;DHT22;41504;53.162;6.788;2023-02-01T16:29:25;7.30;84.70
55634;DHT22;41504;53.162;6.788;2023-02-01T16:31:52;7.30;84.50
55634;DHT22;41504;53.162;6.788;2023-02-01T16:34:17;7.20;84.30
55634;DHT22;41504;53.162;6.788;2023-02-01T16:36:46;7.20;84.20
55634;DHT22;41504;53.162;6.788;2023-02-01T16:39:17;7.20;84.00
55634;DHT22;41504;53.162;6.788;2023-02-01T16:41:42;7.20;84.00
55634;DHT22;41504;53.162;6.788;2023-02-01T16:44:08;7.10;84.30
55634;DHT22;41504;53.162;6.788;2023-02-01T16:46:39;7.10;83.90
55634;DHT22;41504;53.162;6.788;2023-02-01T16:49:05;7.10;83.90
55634;DHT22;41504;53.162;6.788;2023-02-01T16:51:32;7.10;84.20
55634;DHT22;41504;53.162;6.788;2023-02-01T16:54:01;7.00;83.90
55634;DHT22;41504;53.162;6.788;2023-02-01T16:56:32;7.10;83.70
55634;DHT22;41504;53.162;6.788;2023-02-01T16:58:58;7.10;83.40
55634;DHT22;41504;53.162;6.788;2023-02-01T17:01:24;7.10;83.30
55634;DHT22;41504;53.162;6.788;2023-02-01T17:03:50;7.10;83.20
55634;DHT22;41504;53.162;6.788;2023-02-01T17:06:22;7.20;83.20
55634;DHT22;41504;53.162;6.788;2023-02-01T17:08:54;7.10;83.30
55634;DHT22;41504;53.162;6.788;2023-02-01T17:11:20;7.00;83.80
55634;DHT22;41504;53.162;6.788;2023-02-01T17:13:46;7.00;83.50
55634;DHT22;41504;53.162;6.788;2023-02-01T17:18:47;6.90;83.60
55634;DHT22;41504;53.162;6.788;2023-02-01T17:21:15;7.00;83.40
55634;DHT22;41504;53.162;6.788;2023-02-01T17:23:40;7.00;83.90
55634;DHT22;41504;53.162;6.788;2023-02-01T17:26:09;6.90;83.60
55634;DHT22;41504;53.162;6.788;2023-02-01T17:28:34;6.90;83.80
55634;DHT22;41504;53.162;6.788;2023-02-01T17:31:01;6.90;84.00
55634;DHT22;41504;53.162;6.788;2023-02-01T17:35:55;6.90;84.10
55634;DHT22;41504;53.162;6.788;2023-02-01T17:38:22;7.00;84.20
55634;DHT22;41504;53.162;6.788;2023-02-01T17:40:48;6.90;84.30
55634;DHT22;41504;53.162;6.788;2023-02-01T17:43:16;6.90;84.40
55634;DHT22;41504;53.162;6.788;2023-02-01T17:45:49;6.90;84.30
55634;DHT22;41504;53.162;6.788;2023-02-01T17:48:21;6.90;84.20
55634;DHT22;41504;53.162;6.788;2023-02-01T17:50:50;6.90;83.70
55634;DHT22;41504;53.162;6.788;2023-02-01T17:53:20;6.90;82.50
55634;DHT22;41504;53.162;6.788;2023-02-01T17:55:49;6.90;81.70
55634;DHT22;41504;53.162;6.788;2023-02-01T17:58:16;6.90;82.40
55634;DHT22;41504;53.162;6.788;2023-02-01T18:00:43;6.80;82.10
55634;DHT22;41504;53.162;6.788;2023-02-01T18:03:25;6.90;81.30
55634;DHT22;41504;53.162;6.788;2023-02-01T18:05:52;6.90;81.70
55634;DHT22;41504;53.162;6.788;2023-02-01T18:08:23;6.90;81.10
55634;DHT22;41504;53.162;6.788;2023-02-01T18:10:51;6.90;80.70
55634;DHT22;41504;53.162;6.788;2023-02-01T18:13:17;6.80;80.70
55634;DHT22;41504;53.162;6.788;2023-02-01T18:15:42;6.80;81.10
55634;DHT22;41504;53.162;6.788;2023-02-01T18:18:08;6.80;80.70
55634;DHT22;41504;53.162;6.788;2023-02-01T18:20:34;6.80;80.70
55634;DHT22;41504;53.162;6.788;2023-02-01T18:23:02;6.80;80.30
55634;DHT22;41504;53.162;6.788;2023-02-01T18:25:30;6.70;80.30
55634;DHT22;41504;53.162;6.788;2023-02-01T18:28:01;6.80;80.10
55634;DHT22;41504;53.162;6.788;2023-02-01T18:30:29;6.80;80.10
55634;DHT22;41504;53.162;6.788;2023-02-01T18:32:56;6.70;79.40
55634;DHT22;41504;53.162;6.788;2023-02-01T18:35:27;6.80;79.70
55634;DHT22;41504;53.162;6.788;2023-02-01T18:37:53;6.90;79.60
55634;DHT22;41504;53.162;6.788;2023-02-01T18:40:32;6.80;79.50
55634;DHT22;41504;53.162;6.788;2023-02-01T18:42:59;6.80;79.50
55634;DHT22;41504;53.162;6.788;2023-02-01T18:45:40;6.80;80.00
55634;DHT22;41504;53.162;6.788;2023-02-01T18:48:08;6.80;80.10
55634;DHT22;41504;53.162;6.788;2023-02-01T18:50:38;6.80;80.30